createdAt,value
2018-06-09T00:09:20.000Z,24.7
2018-06-09T00:19:18.000Z,24.8
2018-06-09T00:29:20.000Z,24.8
2018-06-09T00:39:18.000Z,24.7
2018-06-09T00:49:18.000Z,24.8
2018-06-09T00:59:18.000Z,24.7
2018-06-09T01:09:18.000Z,24.7
2018-06-09T01:19:18.000Z,24.7
2018-06-09T01:29:18.000Z,24.6
2018-06-09T01:39:18.000Z,24.6
2018-06-09T01:49:18.000Z,24.5
2018-06-09T01:59:19.000Z,24.5
2018-06-09T02:09:19.000Z,24.5
2018-06-09T02:19:19.000Z,24.4
2018-06-09T02:29:19.000Z,24.4
2018-06-09T02:39:19.000Z,24.4
2018-06-09T02:49:19.000Z,24.4
2018-06-09T02:59:19.000Z,24.3
2018-06-09T03:09:19.000Z,24.4
2018-06-09T03:19:19.000Z,24.4
2018-06-09T03:29:19.000Z,24.2
2018-06-09T03:39:19.000Z,24.1
2018-06-09T03:49:19.000Z,24
2018-06-09T03:59:19.000Z,23.9
2018-06-09T04:09:19.000Z,23.9
2018-06-09T04:19:19.000Z,23.9
2018-06-09T04:29:19.000Z,23.9
2018-06-09T04:39:19.000Z,23.9
2018-06-09T04:49:19.000Z,23.7
2018-06-09T04:59:20.000Z,23.8
2018-06-09T05:09:19.000Z,23.7
2018-06-09T05:19:19.000Z,23.7
2018-06-09T05:29:19.000Z,23.7
2018-06-09T05:39:19.000Z,23.8
2018-06-09T05:49:20.000Z,23.9
2018-06-09T05:59:19.000Z,24
2018-06-09T06:09:19.000Z,24
2018-06-09T06:19:19.000Z,24
2018-06-09T06:29:19.000Z,24
2018-06-09T06:39:19.000Z,24
2018-06-09T06:59:19.000Z,24
2018-06-09T07:09:19.000Z,24.1
2018-06-09T07:19:19.000Z,24.1
2018-06-09T07:29:19.000Z,24.2
2018-06-09T07:39:19.000Z,24.4
2018-06-09T07:49:20.000Z,24.5
2018-06-09T07:59:19.000Z,24.7
2018-06-09T08:09:19.000Z,24.8
2018-06-09T08:19:19.000Z,24.9
2018-06-09T08:29:20.000Z,24.9
2018-06-09T08:39:20.000Z,25
2018-06-09T08:49:20.000Z,25
2018-06-09T08:59:20.000Z,25
2018-06-09T09:09:22.000Z,25
2018-06-09T09:19:20.000Z,25.1
2018-06-09T09:29:20.000Z,25.1
2018-06-09T09:39:20.000Z,25.2
2018-06-09T09:49:20.000Z,25.3
2018-06-09T09:59:20.000Z,25.3
2018-06-09T10:09:20.000Z,25.3
2018-06-09T10:19:20.000Z,25.3
2018-06-09T10:29:20.000Z,25.3
2018-06-09T10:39:20.000Z,25.3
2018-06-09T10:49:20.000Z,25.3
2018-06-09T10:59:20.000Z,25.3
2018-06-09T11:09:20.000Z,25.3
2018-06-09T11:19:20.000Z,25.3
2018-06-09T11:29:22.000Z,25.3
2018-06-09T11:39:20.000Z,25.3
2018-06-09T11:49:20.000Z,25.4
2018-06-09T11:59:20.000Z,25.3
2018-06-09T12:09:20.000Z,25.3
2018-06-09T12:19:20.000Z,25.3
2018-06-09T12:29:20.000Z,25.4
2018-06-09T12:39:20.000Z,25.3
2018-06-09T12:49:20.000Z,25.4
2018-06-09T12:59:22.000Z,25.3
2018-06-09T13:09:20.000Z,25.4
2018-06-09T13:19:20.000Z,25.4
2018-06-09T13:29:20.000Z,25.4
2018-06-09T13:39:20.000Z,25.4
2018-06-09T13:49:20.000Z,25.4
2018-06-09T13:59:20.000Z,25.4
2018-06-09T14:09:20.000Z,25.5
2018-06-09T14:19:20.000Z,25.4
2018-06-09T14:29:20.000Z,25.4
2018-06-09T14:39:20.000Z,25.4
2018-06-09T14:49:20.000Z,25.5
2018-06-09T14:59:20.000Z,25.4
2018-06-09T15:09:20.000Z,25.5
2018-06-09T15:19:20.000Z,25.5
2018-06-09T15:29:20.000Z,25.5
2018-06-09T15:39:21.000Z,25.5
2018-06-09T15:49:21.000Z,25.5
2018-06-09T15:59:21.000Z,25.5
2018-06-09T16:09:21.000Z,25.5
2018-06-09T16:19:21.000Z,25.6
2018-06-09T16:29:21.000Z,25.5
2018-06-09T16:39:21.000Z,25.6
2018-06-09T16:49:21.000Z,25.6
2018-06-09T16:59:21.000Z,25.5
2018-06-09T17:09:21.000Z,25.6
2018-06-09T17:19:21.000Z,25.6
2018-06-09T17:29:24.000Z,25.6
2018-06-09T17:39:21.000Z,25.6
2018-06-09T17:49:21.000Z,25.6
2018-06-09T17:59:21.000Z,25.6
2018-06-09T18:09:21.000Z,25.7
2018-06-09T18:19:21.000Z,25.6
2018-06-09T18:29:21.000Z,25.7
2018-06-09T18:39:21.000Z,25.6
2018-06-09T18:49:21.000Z,25.9
2018-06-09T18:59:21.000Z,26
2018-06-09T19:09:21.000Z,26
2018-06-09T19:19:21.000Z,26
2018-06-09T19:29:22.000Z,26.1
2018-06-09T19:39:21.000Z,25.9
2018-06-09T19:49:21.000Z,26
2018-06-09T19:59:21.000Z,26
2018-06-09T20:09:21.000Z,26
2018-06-09T20:19:21.000Z,25.9
2018-06-09T20:29:21.000Z,25.8
2018-06-09T20:39:21.000Z,25.5
2018-06-09T20:49:21.000Z,25.5
2018-06-09T20:59:21.000Z,25.4
2018-06-09T21:09:21.000Z,25.4
2018-06-09T21:19:21.000Z,25.3
2018-06-09T21:29:21.000Z,25.4
2018-06-09T21:39:21.000Z,25.3
2018-06-09T21:49:21.000Z,25.1
2018-06-09T21:59:21.000Z,25.2
2018-06-09T22:09:21.000Z,25.2
2018-06-09T22:19:24.000Z,25.3
2018-06-09T22:29:22.000Z,25.3
2018-06-09T22:39:23.000Z,25.2
2018-06-09T22:49:22.000Z,25.2
2018-06-09T22:59:22.000Z,25.2
2018-06-09T23:09:22.000Z,25.1
2018-06-09T23:19:22.000Z,25.1
2018-06-09T23:29:22.000Z,25.1
2018-06-09T23:39:22.000Z,25.1
2018-06-09T23:49:22.000Z,25
2018-06-09T23:59:22.000Z,25
